Time;durP1;ratioP1;P1;durP2;ratioP2;P2;SDS_P1;SDS_P2;PMS_P1;PMS_P2;Temp;Humidity;BMP_temperature;BMP_pressure;BME280_temperature;BME280_humidity;BME280_pressure;Samples;Min_cycle;Max_cycle;Signal;HPM_P1;HPM_P2
2021/05/07 00:00:07;;;;;;;8.38;7.57;;;10.50;56.10;;;;;;1491388;39;20108;-53
2021/05/07 00:01:28;;;;;;;7.78;6.85;;;10.50;56.20;;;;;;1489758;39;20036;-53
2021/05/07 00:02:49;;;;;;;7.78;6.90;;;10.50;56.20;;;;;;1491033;39;20116;-53
2021/05/07 00:04:11;;;;;;;8.02;6.82;;;10.50;56.30;;;;;;1491505;39;20085;-50
2021/05/07 00:05:32;;;;;;;7.95;6.50;;;10.50;56.50;;;;;;1490911;39;20030;-55
2021/05/07 00:06:53;;;;;;;8.13;7.32;;;10.50;56.50;;;;;;1491248;39;20031;-50
2021/05/07 00:08:14;;;;;;;7.68;6.80;;;10.50;56.60;;;;;;1489410;39;20020;-54
2021/05/07 00:09:35;;;;;;;9.23;7.47;;;10.40;56.60;;;;;;1490244;39;20031;-53
2021/05/07 00:10:57;;;;;;;7.50;6.75;;;10.40;56.60;;;;;;1490952;39;20435;-54
2021/05/07 00:12:17;;;;;;;7.30;6.38;;;10.40;56.60;;;;;;1491703;39;20034;-53
2021/05/07 00:13:38;;;;;;;9.07;7.70;;;10.40;56.60;;;;;;1490317;39;20024;-55
2021/05/07 00:14:59;;;;;;;8.73;7.82;;;10.50;56.70;;;;;;1491685;39;20112;-54
2021/05/07 00:16:21;;;;;;;7.93;7.15;;;10.50;56.70;;;;;;1489542;39;20254;-52
2021/05/07 00:17:42;;;;;;;7.93;7.10;;;10.40;57.10;;;;;;1490975;39;20031;-54
2021/05/07 00:19:06;;;;;;;7.50;6.80;;;10.40;56.70;;;;;;1491621;39;20039;-53
2021/05/07 00:20:26;;;;;;;7.47;6.65;;;10.40;56.60;;;;;;1490911;39;20036;-55
2021/05/07 00:21:48;;;;;;;8.88;7.10;;;10.40;56.70;;;;;;1489470;39;20030;-53
2021/05/07 00:23:08;;;;;;;7.43;6.50;;;10.40;56.80;;;;;;1490799;39;20044;-53
2021/05/07 00:24:29;;;;;;;7.80;6.93;;;10.40;56.80;;;;;;1490843;39;20043;-50
2021/05/07 00:25:52;;;;;;;8.30;7.50;;;10.40;56.80;;;;;;1491097;39;20264;-53
2021/05/07 00:27:16;;;;;;;8.52;7.72;;;10.40;57.00;;;;;;1490752;39;20031;-50
2021/05/07 00:28:37;;;;;;;8.18;7.28;;;10.40;57.00;;;;;;1490520;39;20058;-54
2021/05/07 00:29:58;;;;;;;7.32;6.63;;;10.40;57.20;;;;;;1490332;39;20035;-56
2021/05/07 00:31:19;;;;;;;7.25;6.55;;;10.40;57.20;;;;;;1491654;39;20036;-54
2021/05/07 00:32:40;;;;;;;8.85;7.80;;;10.40;57.20;;;;;;1491145;39;20058;-54
2021/05/07 00:34:01;;;;;;;8.20;7.30;;;10.40;57.20;;;;;;1491302;39;20027;-51
2021/05/07 00:35:22;;;;;;;7.90;7.18;;;10.40;57.40;;;;;;1486624;40;20084;-54
2021/05/07 00:36:43;;;;;;;8.05;7.25;;;10.40;57.40;;;;;;1486905;39;20028;-53
2021/05/07 00:38:05;;;;;;;8.25;7.25;;;10.40;57.40;;;;;;1491434;39;20303;-53
2021/05/07 00:39:26;;;;;;;8.13;7.00;;;10.40;57.40;;;;;;1490123;39;20380;-52
2021/05/07 00:40:47;;;;;;;8.60;7.32;;;10.40;57.50;;;;;;1490563;39;20365;-55
2021/05/07 00:42:09;;;;;;;8.48;7.43;;;10.40;57.50;;;;;;1491037;39;20027;-55
2021/05/07 00:43:30;;;;;;;7.22;6.50;;;10.40;57.40;;;;;;1490147;39;20036;-51
2021/05/07 00:44:51;;;;;;;8.57;7.43;;;10.40;57.40;;;;;;1487060;40;20156;-54
2021/05/07 00:46:12;;;;;;;8.27;7.28;;;10.40;57.40;;;;;;1489840;39;20043;-55
2021/05/07 00:47:39;;;;;;;8.43;7.32;;;10.40;57.40;;;;;;1491647;39;20047;-53
2021/05/07 00:49:00;;;;;;;9.30;7.57;;;10.40;57.60;;;;;;1491637;39;20016;-52
2021/05/07 00:50:23;;;;;;;8.38;7.05;;;10.40;57.30;;;;;;1490963;39;20360;-56
2021/05/07 00:51:44;;;;;;;8.73;7.68;;;10.40;57.40;;;;;;1489534;39;20036;-54
2021/05/07 00:53:05;;;;;;;8.43;7.47;;;10.40;57.40;;;;;;1492457;39;20075;-53
2021/05/07 00:54:28;;;;;;;8.20;7.43;;;10.40;57.50;;;;;;1491211;39;20044;-53
2021/05/07 00:55:48;;;;;;;8.05;7.25;;;10.40;57.60;;;;;;1490922;39;20541;-55
2021/05/07 00:57:10;;;;;;;9.38;7.97;;;10.40;57.50;;;;;;1491493;39;20039;-53
2021/05/07 00:58:31;;;;;;;10.63;7.97;;;10.50;57.50;;;;;;1491816;39;20034;-53
2021/05/07 00:59:52;;;;;;;8.80;7.55;;;10.40;57.50;;;;;;1492113;39;20043;-55
2021/05/07 01:01:13;;;;;;;8.85;7.95;;;10.50;57.50;;;;;;1490689;39;20039;-53
2021/05/07 01:02:35;;;;;;;8.73;7.85;;;10.50;57.50;;;;;;1491731;39;20053;-54
2021/05/07 01:03:56;;;;;;;9.35;8.20;;;10.50;57.60;;;;;;1491150;39;20031;-53
2021/05/07 01:05:17;;;;;;;8.57;7.65;;;10.50;57.60;;;;;;1492027;39;20074;-51
2021/05/07 01:06:38;;;;;;;9.73;8.40;;;10.40;57.50;;;;;;1491741;39;20388;-54
2021/05/07 01:08:00;;;;;;;9.43;8.30;;;10.40;57.40;;;;;;1492023;39;20047;-51
2021/05/07 01:09:21;;;;;;;8.93;8.02;;;10.40;57.50;;;;;;1491012;39;20124;-54
2021/05/07 01:10:43;;;;;;;8.98;8.10;;;10.40;57.50;;;;;;1490625;39;20038;-54
2021/05/07 01:12:04;;;;;;;9.60;8.57;;;10.40;57.50;;;;;;1490076;39;20064;-54
2021/05/07 01:13:25;;;;;;;9.15;8.25;;;10.40;57.50;;;;;;1492073;39;20076;-53
2021/05/07 01:15:22;;;;;;;10.63;8.32;;;10.40;57.60;;;;;;1487560;39;20024;-55
2021/05/07 01:16:43;;;;;;;9.13;8.15;;;10.40;58.20;;;;;;1478983;39;20080;-53
2021/05/07 01:18:04;;;;;;;11.77;9.02;;;10.40;57.40;;;;;;1492064;39;20413;-53
2021/05/07 01:19:25;;;;;;;9.05;8.15;;;10.40;57.50;;;;;;1489718;39;20241;-52
2021/05/07 01:20:46;;;;;;;9.38;8.35;;;10.40;57.70;;;;;;1491784;39;20035;-52
2021/05/07 01:22:07;;;;;;;10.02;9.00;;;10.40;57.70;;;;;;1491479;39;20035;-53
2021/05/07 01:23:27;;;;;;;9.80;8.68;;;10.40;57.70;;;;;;1491110;39;20044;-51
2021/05/07 01:24:49;;;;;;;9.80;8.80;;;10.40;57.70;;;;;;1490373;39;20265;-53
2021/05/07 01:26:10;;;;;;;9.93;8.93;;;10.40;57.80;;;;;;1491713;39;20049;-53
2021/05/07 01:27:35;;;;;;;9.55;8.63;;;10.40;58.30;;;;;;1487307;40;20024;-53
2021/05/07 01:28:56;;;;;;;10.73;9.25;;;10.40;57.90;;;;;;1490553;39;20268;-51
2021/05/07 01:30:19;;;;;;;9.85;8.82;;;10.40;57.70;;;;;;1491730;39;20035;-53
2021/05/07 01:31:44;;;;;;;13.27;9.38;;;10.40;57.80;;;;;;1489661;39;20032;-52
2021/05/07 01:33:06;;;;;;;11.68;9.63;;;10.40;58.10;;;;;;1491997;39;20032;-52
2021/05/07 01:34:26;;;;;;;11.73;9.98;;;10.40;57.90;;;;;;1491994;39;20042;-53
2021/05/07 01:35:49;;;;;;;11.90;10.57;;;10.40;57.80;;;;;;1491690;39;20117;-53
2021/05/07 01:37:10;;;;;;;12.98;10.32;;;10.40;57.80;;;;;;1492459;39;20071;-53
2021/05/07 01:38:31;;;;;;;11.20;9.98;;;10.40;57.80;;;;;;1491552;39;20048;-51
2021/05/07 01:39:52;;;;;;;12.02;10.70;;;10.40;57.80;;;;;;1491782;39;20039;-54
2021/05/07 01:41:13;;;;;;;14.10;10.75;;;10.30;57.80;;;;;;1492005;39;20073;-52
2021/05/07 01:42:34;;;;;;;14.60;11.75;;;10.40;57.80;;;;;;1491932;39;20447;-53
2021/05/07 01:43:56;;;;;;;13.40;10.40;;;10.30;57.80;;;;;;1491983;39;20027;-54
2021/05/07 01:45:19;;;;;;;13.07;11.00;;;10.30;57.70;;;;;;1491691;39;20055;-51
2021/05/07 01:46:40;;;;;;;14.85;11.65;;;10.30;57.80;;;;;;1490328;39;20043;-52
2021/05/07 01:48:03;;;;;;;14.63;11.35;;;10.30;57.80;;;;;;1492291;39;20020;-52
2021/05/07 01:49:24;;;;;;;14.23;11.68;;;10.30;57.80;;;;;;1491122;39;20034;-52
2021/05/07 01:50:47;;;;;;;13.20;11.40;;;10.30;58.30;;;;;;1491195;39;20134;-53
2021/05/07 01:52:08;;;;;;;16.17;11.65;;;10.30;57.90;;;;;;1491568;39;20075;-49
2021/05/07 01:53:29;;;;;;;13.48;12.05;;;10.30;57.90;;;;;;1491207;39;20039;-54
2021/05/07 01:54:50;;;;;;;14.65;11.95;;;10.30;57.90;;;;;;1491397;39;20031;-50
2021/05/07 01:56:11;;;;;;;15.30;13.27;;;10.30;57.90;;;;;;1492197;39;20020;-54
2021/05/07 01:57:34;;;;;;;15.88;12.13;;;10.30;58.00;;;;;;1490398;39;20028;-52
2021/05/07 01:58:55;;;;;;;15.95;12.88;;;10.20;58.00;;;;;;1491752;39;20035;-55
2021/05/07 02:00:21;;;;;;;18.48;12.93;;;10.20;58.20;;;;;;1491124;39;20027;-50
2021/05/07 02:01:42;;;;;;;15.65;12.57;;;10.20;58.30;;;;;;1491988;39;20137;-53
2021/05/07 02:03:06;;;;;;;16.63;12.90;;;10.20;58.20;;;;;;1491775;39;20043;-54
2021/05/07 02:04:27;;;;;;;13.68;12.13;;;10.20;58.30;;;;;;1492052;39;20055;-52
2021/05/07 02:05:48;;;;;;;15.75;12.55;;;10.20;58.20;;;;;;1491458;39;20030;-51
2021/05/07 02:07:09;;;;;;;15.93;13.23;;;10.20;58.20;;;;;;1491877;39;20115;-51
2021/05/07 02:08:30;;;;;;;16.00;12.98;;;10.20;58.20;;;;;;1490232;39;20280;-53
2021/05/07 02:09:51;;;;;;;15.73;13.13;;;10.20;58.20;;;;;;1491353;39;20032;-53
2021/05/07 02:11:12;;;;;;;15.02;12.75;;;10.20;58.30;;;;;;1486803;40;20024;-53
2021/05/07 02:12:33;;;;;;;14.45;12.68;;;10.20;58.30;;;;;;1490773;39;20592;-52
2021/05/07 02:13:54;;;;;;;15.23;12.50;;;10.10;58.30;;;;;;1491177;39;20112;-53
2021/05/07 02:15:17;;;;;;;15.13;12.35;;;10.10;58.20;;;;;;1489677;39;20044;-53
2021/05/07 02:16:38;;;;;;;19.08;14.35;;;10.20;58.30;;;;;;1491481;39;20112;-52
2021/05/07 02:18:00;;;;;;;15.70;12.95;;;10.10;58.30;;;;;;1491512;39;20023;-51
2021/05/07 02:19:20;;;;;;;17.85;13.35;;;10.10;58.30;;;;;;1491203;39;20113;-53
2021/05/07 02:20:43;;;;;;;17.42;14.00;;;10.10;58.30;;;;;;1489412;39;20026;-54
2021/05/07 02:22:04;;;;;;;19.83;14.75;;;10.10;58.20;;;;;;1491394;39;20064;-54
2021/05/07 02:23:25;;;;;;;16.45;13.32;;;10.10;58.30;;;;;;1485279;40;20064;-49
2021/05/07 02:24:46;;;;;;;14.65;12.65;;;10.10;58.40;;;;;;1490071;39;20027;-53
2021/05/07 02:26:07;;;;;;;17.60;13.85;;;10.10;58.50;;;;;;1491652;39;20047;-53
2021/05/07 02:27:28;;;;;;;16.23;13.90;;;10.10;58.60;;;;;;1491992;39;20050;-53
2021/05/07 02:28:49;;;;;;;16.40;13.38;;;10.00;58.50;;;;;;1488124;39;20024;-53
2021/05/07 02:30:14;;;;;;;16.15;13.45;;;10.10;58.50;;;;;;1487171;40;20028;-51
2021/05/07 02:31:35;;;;;;;16.98;13.88;;;10.10;58.60;;;;;;1488729;39;20044;-51
2021/05/07 02:32:56;;;;;;;16.20;13.48;;;10.10;58.60;;;;;;1491516;39;20047;-55
2021/05/07 02:34:17;;;;;;;15.95;13.18;;;10.10;58.60;;;;;;1491630;39;20314;-54
2021/05/07 02:35:38;;;;;;;16.00;13.52;;;10.10;58.60;;;;;;1491258;39;20044;-52
2021/05/07 02:36:59;;;;;;;18.50;13.75;;;10.00;58.60;;;;;;1491315;39;20036;-54
2021/05/07 02:38:19;;;;;;;16.77;13.55;;;10.00;58.50;;;;;;1489545;39;20027;-53
2021/05/07 02:39:40;;;;;;;17.25;13.77;;;10.00;58.50;;;;;;1487409;40;20133;-53
2021/05/07 02:41:01;;;;;;;16.50;14.23;;;10.10;58.60;;;;;;1488527;40;20028;-54
2021/05/07 02:42:22;;;;;;;17.90;13.48;;;10.00;58.50;;;;;;1487868;40;20044;-53
2021/05/07 02:43:43;;;;;;;17.30;13.50;;;10.00;58.50;;;;;;1487313;40;20028;-51
2021/05/07 02:45:06;;;;;;;17.45;14.13;;;10.00;58.50;;;;;;1486903;40;20031;-54
2021/05/07 02:46:27;;;;;;;16.58;13.45;;;10.00;58.60;;;;;;1486173;39;20145;-54
2021/05/07 02:47:48;;;;;;;15.95;13.40;;;10.00;58.60;;;;;;1485690;40;20243;-53
2021/05/07 02:49:09;;;;;;;16.75;13.50;;;10.00;58.60;;;;;;1487815;40;20033;-55
2021/05/07 02:50:30;;;;;;;18.35;14.60;;;10.00;58.60;;;;;;1487731;40;20090;-53
2021/05/07 02:51:51;;;;;;;16.08;13.85;;;10.00;58.60;;;;;;1486838;40;20020;-54
2021/05/07 02:53:12;;;;;;;17.23;14.25;;;10.00;58.70;;;;;;1487709;40;20051;-54
2021/05/07 02:54:33;;;;;;;16.52;14.13;;;10.00;58.80;;;;;;1488395;40;20272;-53
2021/05/07 02:55:55;;;;;;;17.45;14.35;;;10.00;58.80;;;;;;1486207;40;20109;-51
2021/05/07 02:57:15;;;;;;;16.90;14.15;;;9.90;58.80;;;;;;1485561;40;20083;-54
2021/05/07 02:58:36;;;;;;;17.30;14.00;;;9.90;58.90;;;;;;1487213;39;20028;-52
2021/05/07 02:59:57;;;;;;;19.10;14.68;;;10.00;58.90;;;;;;1487036;40;20037;-55
2021/05/07 03:01:18;;;;;;;17.17;14.30;;;10.00;59.00;;;;;;1490025;39;20031;-51
2021/05/07 03:02:39;;;;;;;18.02;14.63;;;9.90;59.00;;;;;;1490245;39;20089;-53
2021/05/07 03:04:00;;;;;;;18.35;15.25;;;10.00;59.00;;;;;;1491063;39;20353;-52
2021/05/07 03:05:21;;;;;;;18.63;14.35;;;9.90;58.90;;;;;;1491703;39;20035;-52
2021/05/07 03:06:42;;;;;;;18.05;14.02;;;10.00;59.00;;;;;;1489393;39;20039;-53
2021/05/07 03:08:03;;;;;;;20.70;16.02;;;10.00;59.00;;;;;;1489672;39;20032;-53
2021/05/07 03:09:24;;;;;;;19.05;15.70;;;9.90;59.00;;;;;;1491319;39;20079;-52
2021/05/07 03:10:46;;;;;;;19.17;15.63;;;9.90;58.90;;;;;;1489242;39;20020;-50
2021/05/07 03:12:08;;;;;;;22.35;16.17;;;9.90;58.90;;;;;;1492010;39;20055;-51
2021/05/07 03:13:29;;;;;;;20.08;15.57;;;9.90;58.80;;;;;;1487640;40;20036;-53
2021/05/07 03:14:49;;;;;;;21.30;16.55;;;9.90;58.80;;;;;;1487269;40;20044;-54
2021/05/07 03:16:10;;;;;;;20.27;15.63;;;9.90;58.70;;;;;;1488048;40;20028;-54
2021/05/07 03:17:31;;;;;;;21.65;16.23;;;9.90;58.70;;;;;;1485140;40;20026;-52
2021/05/07 03:18:52;;;;;;;23.95;16.63;;;9.90;58.70;;;;;;1488279;39;20043;-55
2021/05/07 03:20:14;;;;;;;19.23;15.82;;;9.90;58.70;;;;;;1487708;40;20048;-54
2021/05/07 03:21:35;;;;;;;20.13;15.73;;;9.90;59.00;;;;;;1487372;40;20265;-55
2021/05/07 03:22:56;;;;;;;18.00;14.93;;;9.90;58.80;;;;;;1486933;40;20032;-53
2021/05/07 03:24:16;;;;;;;18.70;14.88;;;9.80;58.80;;;;;;1484854;40;20090;-54
2021/05/07 03:25:38;;;;;;;17.48;14.30;;;9.90;58.80;;;;;;1486885;39;20570;-52
2021/05/07 03:26:59;;;;;;;18.10;14.57;;;9.90;58.80;;;;;;1487324;40;20139;-54
2021/05/07 03:28:19;;;;;;;18.48;14.68;;;9.80;58.80;;;;;;1490618;39;20088;-55
2021/05/07 03:29:41;;;;;;;19.17;15.50;;;9.80;58.70;;;;;;1490345;39;20043;-54
2021/05/07 03:31:01;;;;;;;18.75;15.10;;;9.80;58.70;;;;;;1486491;40;20089;-56
2021/05/07 03:32:22;;;;;;;18.60;14.85;;;9.80;58.80;;;;;;1489607;39;20043;-53
2021/05/07 03:33:47;;;;;;;16.58;14.07;;;9.80;58.80;;;;;;1491850;39;20372;-54
2021/05/07 03:35:09;;;;;;;19.73;14.70;;;9.80;58.80;;;;;;1491376;39;20035;-52
2021/05/07 03:36:30;;;;;;;17.85;14.95;;;9.80;58.90;;;;;;1490936;39;20369;-51
2021/05/07 03:37:51;;;;;;;17.63;13.98;;;9.80;58.80;;;;;;1490403;39;20540;-54
2021/05/07 03:39:12;;;;;;;17.85;15.05;;;9.70;58.70;;;;;;1491231;39;20032;-51
2021/05/07 03:40:33;;;;;;;18.10;15.07;;;9.70;58.80;;;;;;1491740;39;20035;-55
2021/05/07 03:41:54;;;;;;;16.80;14.50;;;9.70;58.90;;;;;;1491450;39;20054;-53
2021/05/07 03:43:16;;;;;;;19.90;14.38;;;9.70;58.90;;;;;;1489821;39;20087;-55
2021/05/07 03:44:36;;;;;;;17.45;14.32;;;9.70;58.90;;;;;;1486860;40;20311;-52
2021/05/07 03:45:58;;;;;;;17.58;15.10;;;9.70;58.90;;;;;;1489926;39;20311;-53
2021/05/07 03:47:18;;;;;;;19.13;14.73;;;9.70;58.90;;;;;;1491671;39;20028;-55
2021/05/07 03:48:39;;;;;;;17.83;15.15;;;9.70;58.90;;;;;;1491480;39;20069;-52
2021/05/07 03:50:00;;;;;;;21.00;15.98;;;9.70;59.00;;;;;;1491203;39;20385;-53
2021/05/07 03:51:21;;;;;;;18.23;14.18;;;9.70;59.00;;;;;;1491083;39;20067;-53
2021/05/07 03:52:42;;;;;;;21.35;16.00;;;9.70;59.10;;;;;;1490962;39;20051;-55
2021/05/07 03:54:04;;;;;;;19.95;15.98;;;9.70;59.10;;;;;;1491438;39;20042;-53
2021/05/07 03:55:25;;;;;;;18.70;15.07;;;9.70;59.10;;;;;;1491814;39;20111;-55
2021/05/07 03:56:46;;;;;;;19.88;14.85;;;9.70;59.10;;;;;;1491429;39;20032;-53
2021/05/07 03:58:08;;;;;;;16.48;13.30;;;9.70;59.10;;;;;;1491506;39;20019;-52
2021/05/07 03:59:28;;;;;;;18.95;15.27;;;9.70;59.10;;;;;;1489953;39;20272;-53
2021/05/07 04:00:50;;;;;;;18.83;14.98;;;9.70;59.00;;;;;;1490470;39;20028;-50
2021/05/07 04:02:10;;;;;;;19.05;15.30;;;9.70;59.10;;;;;;1491703;39;20128;-53
2021/05/07 04:03:31;;;;;;;18.85;15.40;;;9.70;59.20;;;;;;1489754;39;20081;-51
2021/05/07 04:04:54;;;;;;;21.08;16.45;;;9.70;59.20;;;;;;1489992;39;20035;-51
2021/05/07 04:06:17;;;;;;;18.38;15.18;;;9.70;59.20;;;;;;1491035;39;20019;-50
2021/05/07 04:07:38;;;;;;;20.17;14.55;;;9.70;59.20;;;;;;1491758;39;20032;-50
2021/05/07 04:09:09;;;;;;;18.33;14.38;;;9.70;59.20;;;;;;1489182;39;20369;-53
2021/05/07 04:10:32;;;;;;;17.35;14.15;;;9.70;59.20;;;;;;1490333;39;20357;-53
2021/05/07 04:12:00;;;;;;;18.30;14.63;;;9.70;59.20;;;;;;1490785;39;20024;-53
2021/05/07 04:13:39;;;;;;;20.15;15.75;;;9.70;59.20;;;;;;1489313;39;20068;-52
2021/05/07 04:15:02;;;;;;;20.13;15.20;;;9.70;59.20;;;;;;1491895;39;20027;-52
2021/05/07 04:16:23;;;;;;;19.67;14.70;;;9.70;59.10;;;;;;1491207;39;20048;-54
2021/05/07 04:17:45;;;;;;;20.17;16.13;;;9.70;59.10;;;;;;1489680;39;20027;-53
2021/05/07 04:19:06;;;;;;;20.08;14.90;;;9.70;59.20;;;;;;1491637;39;20360;-54
2021/05/07 04:20:26;;;;;;;19.63;15.63;;;9.70;59.20;;;;;;1490939;39;20265;-53
2021/05/07 04:21:47;;;;;;;22.70;16.73;;;9.70;59.20;;;;;;1490284;39;20027;-54
2021/05/07 04:23:08;;;;;;;21.42;16.60;;;9.70;59.20;;;;;;1491154;39;20471;-54
2021/05/07 04:24:29;;;;;;;21.95;17.20;;;9.70;59.20;;;;;;1491635;39;20120;-51
2021/05/07 04:25:51;;;;;;;21.95;16.58;;;9.70;59.20;;;;;;1491677;39;20023;-53
2021/05/07 04:27:13;;;;;;;20.27;16.35;;;9.70;59.20;;;;;;1491462;39;20042;-54
2021/05/07 04:28:33;;;;;;;21.67;16.90;;;9.70;59.30;;;;;;1490258;39;20031;-55
2021/05/07 04:29:54;;;;;;;18.77;16.20;;;9.70;59.40;;;;;;1490995;39;20368;-53
2021/05/07 04:31:15;;;;;;;20.85;16.73;;;9.70;59.40;;;;;;1490670;39;20035;-51
2021/05/07 04:32:36;;;;;;;22.05;17.83;;;9.70;59.50;;;;;;1491114;39;20120;-53
2021/05/07 04:33:57;;;;;;;20.08;16.95;;;9.80;59.60;;;;;;1490149;39;20039;-53
2021/05/07 04:35:18;;;;;;;20.65;17.05;;;9.70;59.60;;;;;;1490819;39;20035;-52
2021/05/07 04:36:39;;;;;;;21.67;16.98;;;9.80;59.60;;;;;;1490258;39;20038;-50
2021/05/07 04:38:01;;;;;;;18.95;16.92;;;9.70;59.50;;;;;;1491866;39;20043;-51
2021/05/07 04:39:22;;;;;;;21.02;17.63;;;9.80;59.60;;;;;;1490856;39;20028;-55
2021/05/07 04:40:43;;;;;;;22.77;17.88;;;9.80;59.50;;;;;;1490961;39;20290;-54
2021/05/07 04:42:04;;;;;;;23.35;18.45;;;9.80;59.50;;;;;;1491375;39;20032;-54
2021/05/07 04:43:25;;;;;;;21.20;17.50;;;9.80;59.60;;;;;;1490652;39;20063;-54
2021/05/07 04:44:46;;;;;;;21.33;16.23;;;9.80;59.50;;;;;;1489676;39;20024;-51
2021/05/07 04:46:07;;;;;;;21.20;18.33;;;9.80;59.40;;;;;;1490626;39;20031;-53
2021/05/07 04:47:27;;;;;;;22.40;17.42;;;9.80;59.50;;;;;;1489942;39;20036;-51
2021/05/07 04:48:49;;;;;;;20.23;16.88;;;9.80;59.50;;;;;;1488401;39;20265;-54
2021/05/07 04:50:11;;;;;;;21.85;17.13;;;9.80;59.50;;;;;;1490182;39;20039;-52
2021/05/07 04:51:32;;;;;;;22.17;17.17;;;9.80;59.50;;;;;;1490160;39;20276;-54
2021/05/07 04:52:53;;;;;;;23.35;17.33;;;9.80;59.60;;;;;;1489845;39;20047;-52
2021/05/07 04:54:14;;;;;;;22.02;17.77;;;9.80;59.70;;;;;;1488669;39;20338;-53
2021/05/07 04:55:35;;;;;;;23.13;18.50;;;9.80;59.70;;;;;;1489763;39;20034;-52
2021/05/07 04:56:56;;;;;;;23.20;17.90;;;9.80;59.90;;;;;;1488862;39;20008;-53
2021/05/07 04:58:17;;;;;;;23.33;18.83;;;9.80;59.80;;;;;;1489201;39;20304;-54
2021/05/07 04:59:37;;;;;;;24.17;18.55;;;9.80;59.80;;;;;;1488637;39;20048;-55
2021/05/07 05:00:58;;;;;;;22.27;17.60;;;9.80;59.80;;;;;;1485747;39;20040;-52
2021/05/07 05:02:21;;;;;;;21.67;18.02;;;9.80;59.90;;;;;;1485736;39;20035;-54
2021/05/07 05:03:42;;;;;;;24.67;19.08;;;9.80;59.90;;;;;;1485797;40;20028;-56
2021/05/07 05:05:04;;;;;;;26.38;18.73;;;9.80;59.90;;;;;;1486694;39;20036;-54
2021/05/07 05:06:25;;;;;;;22.38;17.90;;;9.80;59.90;;;;;;1486719;40;20368;-51
2021/05/07 05:07:47;;;;;;;22.98;18.17;;;9.80;59.90;;;;;;1484964;40;20084;-50
2021/05/07 05:09:08;;;;;;;24.92;19.15;;;9.80;59.90;;;;;;1486468;40;20640;-55
2021/05/07 05:10:29;;;;;;;24.08;18.52;;;9.80;60.00;;;;;;1485644;39;20649;-54
2021/05/07 05:11:50;;;;;;;25.13;19.50;;;9.90;60.10;;;;;;1486700;39;20028;-54
2021/05/07 05:13:11;;;;;;;22.30;18.02;;;9.90;60.10;;;;;;1485741;39;20173;-54
2021/05/07 05:14:32;;;;;;;24.75;18.05;;;9.90;60.20;;;;;;1485264;39;20444;-53
2021/05/07 05:15:55;;;;;;;22.27;18.63;;;9.90;60.30;;;;;;1486391;40;20658;-53
2021/05/07 05:17:15;;;;;;;23.83;18.88;;;9.90;60.40;;;;;;1486450;40;20322;-51
2021/05/07 05:18:39;;;;;;;21.42;16.98;;;9.90;60.50;;;;;;1485501;40;20028;-52
2021/05/07 05:20:00;;;;;;;19.25;16.33;;;9.90;60.60;;;;;;1486691;40;20117;-53
2021/05/07 05:21:21;;;;;;;19.75;15.02;;;9.90;60.50;;;;;;1485398;40;20372;-52
2021/05/07 05:22:42;;;;;;;14.60;12.00;;;9.90;60.40;;;;;;1485111;40;20423;-55
2021/05/07 05:24:04;;;;;;;15.90;12.88;;;10.00;60.40;;;;;;1486627;40;20427;-53
2021/05/07 05:25:24;;;;;;;16.45;12.68;;;9.90;60.40;;;;;;1484093;40;20044;-54
2021/05/07 05:26:45;;;;;;;16.75;13.65;;;9.90;60.40;;;;;;1488427;39;20024;-55
2021/05/07 05:28:06;;;;;;;16.00;13.27;;;10.00;61.30;;;;;;1490500;39;20028;-53
2021/05/07 05:29:28;;;;;;;14.18;11.43;;;9.90;60.40;;;;;;1489651;39;20042;-51
2021/05/07 05:30:49;;;;;;;13.38;11.05;;;9.90;60.40;;;;;;1488414;39;20039;-53
2021/05/07 05:32:12;;;;;;;11.95;10.18;;;9.90;59.90;;;;;;1488087;39;20590;-53
2021/05/07 05:33:34;;;;;;;12.85;10.65;;;9.90;59.70;;;;;;1489766;39;20047;-54
2021/05/07 05:34:55;;;;;;;12.70;10.35;;;9.90;59.50;;;;;;1490523;39;20039;-54
2021/05/07 05:36:17;;;;;;;10.48;9.35;;;9.90;59.30;;;;;;1490883;39;20225;-52
2021/05/07 05:37:38;;;;;;;12.13;10.23;;;9.80;59.50;;;;;;1490414;39;20048;-55
2021/05/07 05:39:00;;;;;;;11.65;10.30;;;9.80;59.60;;;;;;1489585;39;20028;-53
2021/05/07 05:40:21;;;;;;;11.60;10.40;;;9.70;59.60;;;;;;1489322;39;20031;-53
2021/05/07 05:41:43;;;;;;;10.95;9.63;;;9.70;59.60;;;;;;1490828;39;20024;-55
2021/05/07 05:43:04;;;;;;;10.77;9.48;;;9.70;59.60;;;;;;1490361;39;20083;-52
2021/05/07 05:44:25;;;;;;;11.73;9.45;;;9.70;59.50;;;;;;1488104;39;20128;-54
2021/05/07 05:45:46;;;;;;;10.05;8.80;;;9.70;59.40;;;;;;1490674;39;20028;-52
2021/05/07 05:47:06;;;;;;;10.13;8.45;;;9.60;59.40;;;;;;1490627;39;20063;-54
2021/05/07 05:48:27;;;;;;;10.55;8.93;;;9.60;59.60;;;;;;1486264;40;20043;-53
2021/05/07 05:49:48;;;;;;;10.02;8.88;;;9.60;59.70;;;;;;1488766;39;20034;-53
2021/05/07 05:51:09;;;;;;;10.45;9.13;;;9.60;59.80;;;;;;1490734;39;20035;-52
2021/05/07 05:52:30;;;;;;;10.25;9.18;;;9.60;59.80;;;;;;1490149;39;20028;-52
2021/05/07 05:53:51;;;;;;;9.50;8.55;;;9.50;59.70;;;;;;1490411;39;20032;-54
2021/05/07 05:55:12;;;;;;;9.63;8.32;;;9.60;59.80;;;;;;1491011;39;20024;-55
2021/05/07 05:56:33;;;;;;;8.52;7.68;;;9.60;59.90;;;;;;1489980;39;20027;-52
2021/05/07 05:57:54;;;;;;;10.82;8.02;;;9.60;59.80;;;;;;1489218;39;20035;-51
2021/05/07 05:59:15;;;;;;;11.48;8.25;;;9.50;59.80;;;;;;1489342;39;20039;-52
2021/05/07 06:00:36;;;;;;;9.07;7.85;;;9.50;60.00;;;;;;1489290;39;20052;-54
2021/05/07 06:01:57;;;;;;;9.23;7.85;;;9.50;60.10;;;;;;1490626;39;20028;-54
2021/05/07 06:03:18;;;;;;;10.07;8.40;;;9.50;60.70;;;;;;1490950;39;20321;-54
2021/05/07 06:04:39;;;;;;;8.70;7.55;;;9.60;60.20;;;;;;1486048;40;20090;-54
2021/05/07 06:06:00;;;;;;;9.75;8.20;;;9.60;60.20;;;;;;1489256;39;20261;-54
2021/05/07 06:07:21;;;;;;;9.50;7.38;;;9.60;60.40;;;;;;1488276;39;20388;-53
2021/05/07 06:08:42;;;;;;;10.40;7.88;;;9.60;60.30;;;;;;1490366;39;20286;-54
2021/05/07 06:10:04;;;;;;;7.90;7.05;;;9.60;60.20;;;;;;1490580;39;20039;-55
2021/05/07 06:11:25;;;;;;;9.43;7.88;;;9.60;60.20;;;;;;1489213;39;20430;-54
2021/05/07 06:12:47;;;;;;;8.82;7.90;;;9.60;60.10;;;;;;1489315;39;20027;-54
2021/05/07 06:14:08;;;;;;;9.38;7.22;;;9.60;60.00;;;;;;1490032;39;20373;-54
2021/05/07 06:15:28;;;;;;;8.52;6.60;;;9.70;59.90;;;;;;1486382;39;20052;-52
2021/05/07 06:16:49;;;;;;;8.20;7.40;;;9.70;60.00;;;;;;1489393;39;20020;-54
2021/05/07 06:18:10;;;;;;;7.93;6.55;;;9.70;60.20;;;;;;1491032;39;20120;-51
2021/05/07 06:19:31;;;;;;;8.90;7.55;;;9.70;60.20;;;;;;1485044;39;20035;-55
2021/05/07 06:20:52;;;;;;;8.93;7.38;;;9.70;60.20;;;;;;1487986;39;20030;-55
2021/05/07 06:22:13;;;;;;;7.60;6.53;;;9.70;60.10;;;;;;1490776;39;20352;-55
2021/05/07 06:23:34;;;;;;;8.52;6.28;;;9.80;60.20;;;;;;1489744;39;20276;-55
2021/05/07 06:24:55;;;;;;;9.13;6.43;;;9.80;60.40;;;;;;1489381;39;20067;-51
2021/05/07 06:26:16;;;;;;;9.15;7.13;;;9.80;60.50;;;;;;1490736;39;20117;-54
2021/05/07 06:27:37;;;;;;;8.75;6.82;;;9.80;60.60;;;;;;1490305;39;20281;-51
2021/05/07 06:28:58;;;;;;;7.88;6.65;;;9.80;60.80;;;;;;1490446;39;20421;-54
2021/05/07 06:30:20;;;;;;;10.23;6.88;;;9.80;60.80;;;;;;1489876;39;20161;-55
2021/05/07 06:31:40;;;;;;;8.38;7.45;;;9.80;60.60;;;;;;1488534;39;20040;-54
2021/05/07 06:33:01;;;;;;;8.73;7.13;;;9.90;60.50;;;;;;1483949;39;20031;-54
2021/05/07 06:34:22;;;;;;;8.27;7.32;;;9.90;60.50;;;;;;1489658;39;20036;-54
2021/05/07 06:35:43;;;;;;;8.27;7.47;;;9.90;60.30;;;;;;1488797;39;20031;-54
2021/05/07 06:37:04;;;;;;;9.98;7.47;;;9.90;60.50;;;;;;1490343;39;20023;-52
2021/05/07 06:38:25;;;;;;;8.95;7.50;;;9.90;60.70;;;;;;1490453;39;20360;-52
2021/05/07 06:39:46;;;;;;;8.95;7.47;;;9.90;60.90;;;;;;1490089;39;20016;-55
2021/05/07 06:41:07;;;;;;;8.43;7.63;;;9.90;61.10;;;;;;1484842;40;20643;-53
2021/05/07 06:42:28;;;;;;;8.98;7.63;;;9.90;61.00;;;;;;1488849;39;20116;-53
2021/05/07 06:43:49;;;;;;;9.90;7.95;;;9.90;61.00;;;;;;1489718;39;20113;-54
2021/05/07 06:45:11;;;;;;;9.50;7.80;;;10.00;61.10;;;;;;1489682;39;20124;-51
2021/05/07 06:46:32;;;;;;;9.05;8.15;;;10.00;61.10;;;;;;1489451;39;20072;-52
2021/05/07 06:47:53;;;;;;;11.05;8.38;;;10.00;61.10;;;;;;1490015;39;20027;-54
2021/05/07 06:49:14;;;;;;;9.20;7.93;;;10.00;61.40;;;;;;1488813;39;20040;-54
2021/05/07 06:50:35;;;;;;;10.02;8.05;;;10.00;61.50;;;;;;1488637;39;20032;-50
2021/05/07 06:51:55;;;;;;;9.57;8.27;;;10.10;61.50;;;;;;1490279;39;20121;-54
2021/05/07 06:53:17;;;;;;;10.27;8.52;;;10.10;61.10;;;;;;1489921;39;20038;-55
2021/05/07 06:54:37;;;;;;;9.52;8.60;;;10.10;60.50;;;;;;1489206;39;20031;-55
2021/05/07 06:55:58;;;;;;;10.77;9.63;;;10.10;59.90;;;;;;1490085;39;20049;-55
2021/05/07 06:57:19;;;;;;;10.73;9.23;;;10.10;59.60;;;;;;1489834;39;20042;-54
2021/05/07 06:58:40;;;;;;;10.18;8.75;;;10.00;59.40;;;;;;1489160;39;20103;-53
2021/05/07 07:00:03;;;;;;;8.63;7.82;;;10.00;59.30;;;;;;1489994;39;20028;-54